sensor_id;sensor_type;location;lat;lon;timestamp;P1;durP1;ratioP1;P2;durP2;ratioP2
37937;SDS011;23763;48.130;11.602;2022-12-15T00:00:57;21.90;;;19.67;;
37937;SDS011;23763;48.130;11.602;2022-12-15T00:03:42;22.67;;;20.23;;
37937;SDS011;23763;48.130;11.602;2022-12-15T00:06:26;23.03;;;20.73;;
37937;SDS011;23763;48.130;11.602;2022-12-15T00:09:10;22.77;;;20.57;;
37937;SDS011;23763;48.130;11.602;2022-12-15T00:11:54;24.23;;;21.77;;
37937;SDS011;23763;48.130;11.602;2022-12-15T00:14:38;22.70;;;20.30;;
37937;SDS011;23763;48.130;11.602;2022-12-15T00:17:22;22.83;;;20.53;;
37937;SDS011;23763;48.130;11.602;2022-12-15T00:20:07;23.67;;;21.27;;
37937;SDS011;23763;48.130;11.602;2022-12-15T00:22:51;22.73;;;20.53;;
37937;SDS011;23763;48.130;11.602;2022-12-15T00:25:35;23.13;;;20.73;;
37937;SDS011;23763;48.130;11.602;2022-12-15T00:28:19;24.07;;;21.57;;
37937;SDS011;23763;48.130;11.602;2022-12-15T00:31:03;22.83;;;20.53;;
37937;SDS011;23763;48.130;11.602;2022-12-15T00:33:48;22.43;;;20.23;;
37937;SDS011;23763;48.130;11.602;2022-12-15T00:36:32;23.57;;;21.10;;
37937;SDS011;23763;48.130;11.602;2022-12-15T00:39:16;23.00;;;20.57;;
37937;SDS011;23763;48.130;11.602;2022-12-15T00:41:42;23.03;;;20.67;;
37937;SDS011;23763;48.130;11.602;2022-12-15T00:44:07;23.60;;;20.93;;
37937;SDS011;23763;48.130;11.602;2022-12-15T00:46:33;24.00;;;21.43;;
37937;SDS011;23763;48.130;11.602;2022-12-15T00:49:17;24.07;;;21.20;;
37937;SDS011;23763;48.130;11.602;2022-12-15T00:52:12;23.67;;;20.70;;
37937;SDS011;23763;48.130;11.602;2022-12-15T00:54:57;23.87;;;21.47;;
37937;SDS011;23763;48.130;11.602;2022-12-15T00:57:42;25.17;;;21.70;;
37937;SDS011;23763;48.130;11.602;2022-12-15T01:00:27;23.70;;;21.20;;
37937;SDS011;23763;48.130;11.602;2022-12-15T01:03:12;23.27;;;20.87;;
37937;SDS011;23763;48.130;11.602;2022-12-15T01:05:59;24.70;;;22.10;;
37937;SDS011;23763;48.130;11.602;2022-12-15T01:08:43;22.53;;;20.23;;
37937;SDS011;23763;48.130;11.602;2022-12-15T01:11:27;23.53;;;20.93;;
37937;SDS011;23763;48.130;11.602;2022-12-15T01:14:12;23.30;;;20.70;;
37937;SDS011;23763;48.130;11.602;2022-12-15T01:16:56;23.07;;;20.60;;
37937;SDS011;23763;48.130;11.602;2022-12-15T01:19:41;23.07;;;20.67;;
37937;SDS011;23763;48.130;11.602;2022-12-15T01:22:25;24.63;;;21.70;;
37937;SDS011;23763;48.130;11.602;2022-12-15T01:24:50;26.67;;;21.17;;
37937;SDS011;23763;48.130;11.602;2022-12-15T01:27:16;23.80;;;21.17;;
37937;SDS011;23763;48.130;11.602;2022-12-15T01:29:42;22.03;;;19.83;;
37937;SDS011;23763;48.130;11.602;2022-12-15T01:32:07;22.13;;;19.87;;
37937;SDS011;23763;48.130;11.602;2022-12-15T01:34:33;23.33;;;20.97;;
37937;SDS011;23763;48.130;11.602;2022-12-15T01:36:58;22.80;;;20.40;;
37937;SDS011;23763;48.130;11.602;2022-12-15T01:39:24;20.53;;;18.43;;
37937;SDS011;23763;48.130;11.602;2022-12-15T01:42:11;22.20;;;20.00;;
37937;SDS011;23763;48.130;11.602;2022-12-15T01:44:37;20.77;;;18.77;;
37937;SDS011;23763;48.130;11.602;2022-12-15T01:47:03;21.10;;;18.90;;
37937;SDS011;23763;48.130;11.602;2022-12-15T01:49:29;21.17;;;19.00;;
37937;SDS011;23763;48.130;11.602;2022-12-15T01:51:58;21.90;;;19.70;;
37937;SDS011;23763;48.130;11.602;2022-12-15T01:54:26;21.67;;;19.43;;
37937;SDS011;23763;48.130;11.602;2022-12-15T01:57:03;22.20;;;20.00;;
37937;SDS011;23763;48.130;11.602;2022-12-15T01:59:32;23.63;;;20.60;;
37937;SDS011;23763;48.130;11.602;2022-12-15T02:02:07;22.27;;;20.00;;
37937;SDS011;23763;48.130;11.602;2022-12-15T02:04:34;23.60;;;21.07;;
37937;SDS011;23763;48.130;11.602;2022-12-15T02:07:01;23.47;;;20.43;;
37937;SDS011;23763;48.130;11.602;2022-12-15T02:09:28;22.80;;;20.57;;
37937;SDS011;23763;48.130;11.602;2022-12-15T02:23:06;22.70;;;20.27;;
37937;SDS011;23763;48.130;11.602;2022-12-15T02:34:39;23.37;;;20.87;;
37937;SDS011;23763;48.130;11.602;2022-12-15T02:37:18;22.07;;;19.73;;
37937;SDS011;23763;48.130;11.602;2022-12-15T02:39:56;22.73;;;19.73;;
37937;SDS011;23763;48.130;11.602;2022-12-15T02:42:22;22.50;;;20.10;;
37937;SDS011;23763;48.130;11.602;2022-12-15T02:47:18;23.17;;;20.70;;
37937;SDS011;23763;48.130;11.602;2022-12-15T02:50:10;23.00;;;20.60;;
37937;SDS011;23763;48.130;11.602;2022-12-15T03:04:00;22.23;;;19.70;;
37937;SDS011;23763;48.130;11.602;2022-12-15T03:06:29;22.73;;;20.50;;
37937;SDS011;23763;48.130;11.602;2022-12-15T03:08:54;21.60;;;19.40;;
37937;SDS011;23763;48.130;11.602;2022-12-15T03:11:20;22.60;;;20.30;;
37937;SDS011;23763;48.130;11.602;2022-12-15T03:13:46;22.83;;;20.43;;
37937;SDS011;23763;48.130;11.602;2022-12-15T03:16:11;22.67;;;20.33;;
37937;SDS011;23763;48.130;11.602;2022-12-15T03:18:37;23.47;;;19.70;;
37937;SDS011;23763;48.130;11.602;2022-12-15T03:21:03;22.97;;;20.57;;
37937;SDS011;23763;48.130;11.602;2022-12-15T03:23:28;21.97;;;19.37;;
37937;SDS011;23763;48.130;11.602;2022-12-15T03:25:54;22.80;;;20.50;;
37937;SDS011;23763;48.130;11.602;2022-12-15T03:28:20;22.37;;;20.07;;
37937;SDS011;23763;48.130;11.602;2022-12-15T03:30:47;22.23;;;18.90;;
37937;SDS011;23763;48.130;11.602;2022-12-15T03:33:13;23.23;;;20.70;;
37937;SDS011;23763;48.130;11.602;2022-12-15T03:35:39;25.43;;;20.80;;
37937;SDS011;23763;48.130;11.602;2022-12-15T03:38:05;21.83;;;19.53;;
37937;SDS011;23763;48.130;11.602;2022-12-15T03:40:30;23.57;;;21.00;;
37937;SDS011;23763;48.130;11.602;2022-12-15T03:42:56;22.87;;;20.50;;
37937;SDS011;23763;48.130;11.602;2022-12-15T03:45:23;24.60;;;21.63;;
37937;SDS011;23763;48.130;11.602;2022-12-15T03:47:50;23.13;;;19.40;;
37937;SDS011;23763;48.130;11.602;2022-12-15T03:50:19;24.20;;;21.57;;
37937;SDS011;23763;48.130;11.602;2022-12-15T03:52:50;26.80;;;21.17;;
37937;SDS011;23763;48.130;11.602;2022-12-15T03:55:20;23.23;;;20.77;;
37937;SDS011;23763;48.130;11.602;2022-12-15T03:57:46;23.77;;;21.20;;
37937;SDS011;23763;48.130;11.602;2022-12-15T04:00:13;27.33;;;23.40;;
37937;SDS011;23763;48.130;11.602;2022-12-15T04:02:39;24.60;;;21.47;;
37937;SDS011;23763;48.130;11.602;2022-12-15T04:05:06;30.43;;;23.40;;
37937;SDS011;23763;48.130;11.602;2022-12-15T04:07:33;28.00;;;22.47;;
37937;SDS011;23763;48.130;11.602;2022-12-15T04:09:58;25.73;;;22.13;;
37937;SDS011;23763;48.130;11.602;2022-12-15T04:12:24;25.50;;;21.30;;
37937;SDS011;23763;48.130;11.602;2022-12-15T04:14:49;25.63;;;22.03;;
37937;SDS011;23763;48.130;11.602;2022-12-15T04:17:15;25.43;;;21.07;;
37937;SDS011;23763;48.130;11.602;2022-12-15T04:19:40;25.43;;;22.27;;
37937;SDS011;23763;48.130;11.602;2022-12-15T04:22:24;27.33;;;22.87;;
37937;SDS011;23763;48.130;11.602;2022-12-15T04:24:50;26.07;;;23.30;;
37937;SDS011;23763;48.130;11.602;2022-12-15T04:27:34;26.03;;;22.93;;
37937;SDS011;23763;48.130;11.602;2022-12-15T04:30:18;28.60;;;22.80;;
37937;SDS011;23763;48.130;11.602;2022-12-15T04:33:03;29.57;;;23.00;;
37937;SDS011;23763;48.130;11.602;2022-12-15T04:35:48;30.73;;;23.90;;
37937;SDS011;23763;48.130;11.602;2022-12-15T04:38:33;28.53;;;23.00;;
37937;SDS011;23763;48.130;11.602;2022-12-15T04:41:18;28.03;;;23.40;;
37937;SDS011;23763;48.130;11.602;2022-12-15T04:44:04;29.13;;;24.33;;
37937;SDS011;23763;48.130;11.602;2022-12-15T04:46:48;29.87;;;23.60;;
37937;SDS011;23763;48.130;11.602;2022-12-15T04:49:32;28.43;;;23.30;;
37937;SDS011;23763;48.130;11.602;2022-12-15T04:52:17;29.27;;;23.90;;
37937;SDS011;23763;48.130;11.602;2022-12-15T04:55:01;25.77;;;21.87;;
37937;SDS011;23763;48.130;11.602;2022-12-15T04:57:45;26.13;;;23.33;;
37937;SDS011;23763;48.130;11.602;2022-12-15T05:00:29;26.90;;;23.03;;
37937;SDS011;23763;48.130;11.602;2022-12-15T05:03:13;26.87;;;22.93;;
37937;SDS011;23763;48.130;11.602;2022-12-15T05:05:57;26.10;;;23.30;;
37937;SDS011;23763;48.130;11.602;2022-12-15T05:08:41;31.07;;;24.73;;
37937;SDS011;23763;48.130;11.602;2022-12-15T05:11:26;29.00;;;24.20;;
37937;SDS011;23763;48.130;11.602;2022-12-15T05:14:10;29.80;;;23.87;;
37937;SDS011;23763;48.130;11.602;2022-12-15T05:16:54;29.53;;;24.13;;
37937;SDS011;23763;48.130;11.602;2022-12-15T05:19:38;29.93;;;24.47;;
37937;SDS011;23763;48.130;11.602;2022-12-15T05:22:22;27.53;;;24.20;;
37937;SDS011;23763;48.130;11.602;2022-12-15T05:25:06;27.57;;;23.30;;
37937;SDS011;23763;48.130;11.602;2022-12-15T05:27:51;30.77;;;24.57;;
37937;SDS011;23763;48.130;11.602;2022-12-15T05:30:35;27.60;;;23.10;;
37937;SDS011;23763;48.130;11.602;2022-12-15T05:33:19;30.33;;;25.03;;
37937;SDS011;23763;48.130;11.602;2022-12-15T05:35:45;28.57;;;24.13;;
37937;SDS011;23763;48.130;11.602;2022-12-15T05:38:10;26.27;;;22.60;;
37937;SDS011;23763;48.130;11.602;2022-12-15T05:40:36;30.13;;;23.30;;
37937;SDS011;23763;48.130;11.602;2022-12-15T05:43:01;27.80;;;23.83;;
37937;SDS011;23763;48.130;11.602;2022-12-15T05:45:27;27.40;;;22.90;;
37937;SDS011;23763;48.130;11.602;2022-12-15T05:47:53;29.37;;;25.07;;
37937;SDS011;23763;48.130;11.602;2022-12-15T05:50:19;28.20;;;24.53;;
37937;SDS011;23763;48.130;11.602;2022-12-15T05:52:45;30.33;;;23.80;;
37937;SDS011;23763;48.130;11.602;2022-12-15T05:55:13;31.83;;;24.23;;
37937;SDS011;23763;48.130;11.602;2022-12-15T05:57:40;30.33;;;25.77;;
37937;SDS011;23763;48.130;11.602;2022-12-15T06:00:05;34.43;;;26.17;;
37937;SDS011;23763;48.130;11.602;2022-12-15T06:02:32;29.27;;;24.70;;
37937;SDS011;23763;48.130;11.602;2022-12-15T06:04:57;29.90;;;24.57;;
37937;SDS011;23763;48.130;11.602;2022-12-15T06:07:23;30.10;;;25.67;;
37937;SDS011;23763;48.130;11.602;2022-12-15T06:09:49;30.00;;;25.23;;
37937;SDS011;23763;48.130;11.602;2022-12-15T06:12:14;29.63;;;25.20;;
37937;SDS011;23763;48.130;11.602;2022-12-15T06:14:40;29.03;;;23.90;;
37937;SDS011;23763;48.130;11.602;2022-12-15T06:17:06;32.50;;;26.20;;
37937;SDS011;23763;48.130;11.602;2022-12-15T06:19:32;29.90;;;23.83;;
37937;SDS011;23763;48.130;11.602;2022-12-15T06:21:57;26.97;;;24.07;;
37937;SDS011;23763;48.130;11.602;2022-12-15T06:24:23;31.73;;;24.77;;
37937;SDS011;23763;48.130;11.602;2022-12-15T06:26:49;26.77;;;24.00;;
37937;SDS011;23763;48.130;11.602;2022-12-15T06:29:15;26.67;;;23.83;;
37937;SDS011;23763;48.130;11.602;2022-12-15T06:31:42;28.03;;;25.07;;
37937;SDS011;23763;48.130;11.602;2022-12-15T06:34:10;29.20;;;25.27;;
37937;SDS011;23763;48.130;11.602;2022-12-15T06:36:37;28.57;;;25.13;;
37937;SDS011;23763;48.130;11.602;2022-12-15T06:39:04;30.77;;;26.63;;
37937;SDS011;23763;48.130;11.602;2022-12-15T06:41:31;29.73;;;25.40;;
37937;SDS011;23763;48.130;11.602;2022-12-15T06:43:57;33.93;;;25.93;;
37937;SDS011;23763;48.130;11.602;2022-12-15T06:46:24;31.37;;;26.43;;
37937;SDS011;23763;48.130;11.602;2022-12-15T06:48:50;28.37;;;24.33;;
37937;SDS011;23763;48.130;11.602;2022-12-15T06:51:17;29.67;;;25.03;;
37937;SDS011;23763;48.130;11.602;2022-12-15T06:53:43;32.63;;;26.73;;
37937;SDS011;23763;48.130;11.602;2022-12-15T06:56:20;28.77;;;25.07;;
37937;SDS011;23763;48.130;11.602;2022-12-15T06:58:51;32.53;;;25.80;;
37937;SDS011;23763;48.130;11.602;2022-12-15T07:01:18;30.27;;;24.90;;
37937;SDS011;23763;48.130;11.602;2022-12-15T07:03:46;31.60;;;25.43;;
37937;SDS011;23763;48.130;11.602;2022-12-15T07:06:12;28.47;;;25.40;;
37937;SDS011;23763;48.130;11.602;2022-12-15T07:08:39;29.97;;;25.10;;
37937;SDS011;23763;48.130;11.602;2022-12-15T07:11:06;30.90;;;26.53;;
37937;SDS011;23763;48.130;11.602;2022-12-15T07:13:33;31.10;;;25.30;;
37937;SDS011;23763;48.130;11.602;2022-12-15T07:15:59;33.60;;;26.10;;
37937;SDS011;23763;48.130;11.602;2022-12-15T07:18:27;32.03;;;26.87;;
37937;SDS011;23763;48.130;11.602;2022-12-15T07:20:53;34.53;;;27.03;;
37937;SDS011;23763;48.130;11.602;2022-12-15T07:23:20;31.63;;;26.37;;
37937;SDS011;23763;48.130;11.602;2022-12-15T07:25:46;31.63;;;25.43;;
37937;SDS011;23763;48.130;11.602;2022-12-15T07:28:11;36.23;;;28.00;;
37937;SDS011;23763;48.130;11.602;2022-12-15T07:30:37;35.00;;;26.97;;
37937;SDS011;23763;48.130;11.602;2022-12-15T07:33:03;33.00;;;24.97;;
37937;SDS011;23763;48.130;11.602;2022-12-15T07:35:29;31.53;;;26.17;;
37937;SDS011;23763;48.130;11.602;2022-12-15T07:37:55;37.10;;;27.10;;
37937;SDS011;23763;48.130;11.602;2022-12-15T07:40:21;33.37;;;26.93;;
37937;SDS011;23763;48.130;11.602;2022-12-15T07:42:47;34.07;;;26.43;;
37937;SDS011;23763;48.130;11.602;2022-12-15T07:45:12;35.87;;;26.87;;
37937;SDS011;23763;48.130;11.602;2022-12-15T07:47:38;33.60;;;26.93;;
37937;SDS011;23763;48.130;11.602;2022-12-15T07:50:05;32.10;;;26.20;;
37937;SDS011;23763;48.130;11.602;2022-12-15T07:52:31;34.13;;;26.10;;
37937;SDS011;23763;48.130;11.602;2022-12-15T07:54:57;35.27;;;28.53;;
37937;SDS011;23763;48.130;11.602;2022-12-15T07:57:22;31.60;;;25.60;;
37937;SDS011;23763;48.130;11.602;2022-12-15T07:59:49;33.03;;;26.07;;
37937;SDS011;23763;48.130;11.602;2022-12-15T08:02:15;30.30;;;25.40;;
37937;SDS011;23763;48.130;11.602;2022-12-15T08:04:41;31.83;;;27.17;;
37937;SDS011;23763;48.130;11.602;2022-12-15T08:07:07;29.80;;;25.83;;
37937;SDS011;23763;48.130;11.602;2022-12-15T08:09:33;33.77;;;27.20;;
37937;SDS011;23763;48.130;11.602;2022-12-15T08:11:59;34.23;;;26.50;;
37937;SDS011;23763;48.130;11.602;2022-12-15T08:14:24;31.20;;;26.13;;
37937;SDS011;23763;48.130;11.602;2022-12-15T08:16:50;36.17;;;29.17;;
37937;SDS011;23763;48.130;11.602;2022-12-15T08:19:16;33.67;;;26.73;;
37937;SDS011;23763;48.130;11.602;2022-12-15T08:21:43;31.53;;;25.93;;
37937;SDS011;23763;48.130;11.602;2022-12-15T08:24:10;36.43;;;26.47;;
37937;SDS011;23763;48.130;11.602;2022-12-15T08:26:38;35.00;;;26.60;;
37937;SDS011;23763;48.130;11.602;2022-12-15T08:29:05;33.40;;;26.93;;
37937;SDS011;23763;48.130;11.602;2022-12-15T08:31:34;37.80;;;29.10;;
37937;SDS011;23763;48.130;11.602;2022-12-15T08:34:00;34.73;;;27.23;;
37937;SDS011;23763;48.130;11.602;2022-12-15T08:36:27;33.63;;;26.97;;
37937;SDS011;23763;48.130;11.602;2022-12-15T08:38:54;30.83;;;26.13;;
37937;SDS011;23763;48.130;11.602;2022-12-15T08:41:24;32.90;;;27.07;;
37937;SDS011;23763;48.130;11.602;2022-12-15T08:43:52;39.47;;;27.70;;
37937;SDS011;23763;48.130;11.602;2022-12-15T08:46:19;33.90;;;27.13;;
37937;SDS011;23763;48.130;11.602;2022-12-15T08:48:50;32.57;;;26.53;;
37937;SDS011;23763;48.130;11.602;2022-12-15T08:51:20;34.17;;;27.47;;
37937;SDS011;23763;48.130;11.602;2022-12-15T08:53:47;31.60;;;26.20;;
37937;SDS011;23763;48.130;11.602;2022-12-15T08:56:14;31.83;;;26.80;;
37937;SDS011;23763;48.130;11.602;2022-12-15T08:58:42;38.27;;;27.83;;
37937;SDS011;23763;48.130;11.602;2022-12-15T09:01:16;35.43;;;29.37;;
37937;SDS011;23763;48.130;11.602;2022-12-15T09:03:43;48.07;;;33.53;;
37937;SDS011;23763;48.130;11.602;2022-12-15T09:06:12;38.43;;;28.73;;
37937;SDS011;23763;48.130;11.602;2022-12-15T09:08:40;38.83;;;27.23;;
37937;SDS011;23763;48.130;11.602;2022-12-15T09:11:06;37.77;;;28.73;;
37937;SDS011;23763;48.130;11.602;2022-12-15T09:13:32;38.60;;;28.83;;
37937;SDS011;23763;48.130;11.602;2022-12-15T09:16:10;34.37;;;28.03;;
37937;SDS011;23763;48.130;11.602;2022-12-15T09:18:40;35.83;;;27.53;;
37937;SDS011;23763;48.130;11.602;2022-12-15T09:21:11;39.97;;;28.60;;
37937;SDS011;23763;48.130;11.602;2022-12-15T09:23:39;37.10;;;28.50;;
37937;SDS011;23763;48.130;11.602;2022-12-15T09:26:09;32.90;;;27.60;;
37937;SDS011;23763;48.130;11.602;2022-12-15T09:28:37;37.37;;;29.23;;
37937;SDS011;23763;48.130;11.602;2022-12-15T09:31:07;38.77;;;29.00;;
37937;SDS011;23763;48.130;11.602;2022-12-15T09:33:35;40.43;;;29.63;;
37937;SDS011;23763;48.130;11.602;2022-12-15T09:36:02;37.47;;;28.87;;
37937;SDS011;23763;48.130;11.602;2022-12-15T09:38:28;36.93;;;28.80;;
37937;SDS011;23763;48.130;11.602;2022-12-15T09:40:54;36.77;;;28.33;;
37937;SDS011;23763;48.130;11.602;2022-12-15T09:43:21;39.00;;;29.30;;
37937;SDS011;23763;48.130;11.602;2022-12-15T09:45:58;38.83;;;29.93;;
37937;SDS011;23763;48.130;11.602;2022-12-15T09:48:38;39.53;;;28.60;;
37937;SDS011;23763;48.130;11.602;2022-12-15T09:51:07;36.80;;;29.57;;
37937;SDS011;23763;48.130;11.602;2022-12-15T09:53:37;37.77;;;28.87;;
37937;SDS011;23763;48.130;11.602;2022-12-15T09:56:04;36.77;;;28.60;;
37937;SDS011;23763;48.130;11.602;2022-12-15T09:58:42;35.80;;;28.10;;
37937;SDS011;23763;48.130;11.602;2022-12-15T10:01:22;37.47;;;28.77;;
37937;SDS011;23763;48.130;11.602;2022-12-15T10:06:49;41.33;;;27.83;;
37937;SDS011;23763;48.130;11.602;2022-12-15T10:09:20;43.10;;;29.07;;
37937;SDS011;23763;48.130;11.602;2022-12-15T10:12:03;38.70;;;29.10;;
37937;SDS011;23763;48.130;11.602;2022-12-15T10:14:41;42.20;;;29.40;;
37937;SDS011;23763;48.130;11.602;2022-12-15T10:22:23;41.70;;;30.27;;
37937;SDS011;23763;48.130;11.602;2022-12-15T10:24:51;41.87;;;28.90;;
37937;SDS011;23763;48.130;11.602;2022-12-15T10:27:25;41.60;;;28.63;;
37937;SDS011;23763;48.130;11.602;2022-12-15T10:30:07;35.63;;;27.13;;
37937;SDS011;23763;48.130;11.602;2022-12-15T10:32:49;42.87;;;28.70;;
37937;SDS011;23763;48.130;11.602;2022-12-15T10:35:25;36.97;;;28.40;;
37937;SDS011;23763;48.130;11.602;2022-12-15T10:37:57;40.20;;;29.40;;
37937;SDS011;23763;48.130;11.602;2022-12-15T10:40:44;44.73;;;30.57;;
37937;SDS011;23763;48.130;11.602;2022-12-15T10:45:59;43.10;;;31.90;;
37937;SDS011;23763;48.130;11.602;2022-12-15T10:48:39;42.73;;;29.87;;
37937;SDS011;23763;48.130;11.602;2022-12-15T10:53:40;38.77;;;29.13;;
37937;SDS011;23763;48.130;11.602;2022-12-15T10:58:49;36.47;;;28.93;;
37937;SDS011;23763;48.130;11.602;2022-12-15T11:01:28;42.63;;;29.93;;
37937;SDS011;23763;48.130;11.602;2022-12-15T11:03:55;42.67;;;29.90;;
37937;SDS011;23763;48.130;11.602;2022-12-15T11:06:25;47.00;;;30.50;;
37937;SDS011;23763;48.130;11.602;2022-12-15T11:09:06;45.13;;;30.13;;
37937;SDS011;23763;48.130;11.602;2022-12-15T11:11:52;39.53;;;29.73;;
37937;SDS011;23763;48.130;11.602;2022-12-15T11:14:44;44.07;;;29.60;;
37937;SDS011;23763;48.130;11.602;2022-12-15T11:17:15;40.40;;;29.10;;
37937;SDS011;23763;48.130;11.602;2022-12-15T11:19:46;40.37;;;28.57;;
37937;SDS011;23763;48.130;11.602;2022-12-15T11:22:34;38.30;;;28.30;;
37937;SDS011;23763;48.130;11.602;2022-12-15T11:27:32;44.43;;;29.80;;
37937;SDS011;23763;48.130;11.602;2022-12-15T11:30:21;38.50;;;29.77;;
37937;SDS011;23763;48.130;11.602;2022-12-15T11:32:48;41.80;;;29.60;;
37937;SDS011;23763;48.130;11.602;2022-12-15T11:35:31;39.87;;;28.03;;
37937;SDS011;23763;48.130;11.602;2022-12-15T11:38:15;41.97;;;29.47;;
37937;SDS011;23763;48.130;11.602;2022-12-15T11:41:39;39.40;;;28.97;;
37937;SDS011;23763;48.130;11.602;2022-12-15T11:44:05;42.97;;;30.33;;
37937;SDS011;23763;48.130;11.602;2022-12-15T11:46:35;45.53;;;29.30;;
37937;SDS011;23763;48.130;11.602;2022-12-15T11:51:48;42.50;;;31.43;;
37937;SDS011;23763;48.130;11.602;2022-12-15T11:54:27;44.67;;;30.97;;
37937;SDS011;23763;48.130;11.602;2022-12-15T12:18:10;44.03;;;30.40;;
37937;SDS011;23763;48.130;11.602;2022-12-15T12:21:04;42.57;;;31.13;;
37937;SDS011;23763;48.130;11.602;2022-12-15T12:23:41;49.80;;;34.10;;
37937;SDS011;23763;48.130;11.602;2022-12-15T12:31:20;42.87;;;29.77;;
37937;SDS011;23763;48.130;11.602;2022-12-15T12:33:54;42.93;;;30.77;;
37937;SDS011;23763;48.130;11.602;2022-12-15T12:36:25;42.23;;;30.97;;
37937;SDS011;23763;48.130;11.602;2022-12-15T12:38:52;43.20;;;30.10;;
37937;SDS011;23763;48.130;11.602;2022-12-15T12:46:18;42.57;;;31.90;;
37937;SDS011;23763;48.130;11.602;2022-12-15T12:51:39;41.10;;;29.27;;
37937;SDS011;23763;48.130;11.602;2022-12-15T12:59:40;44.60;;;31.73;;
37937;SDS011;23763;48.130;11.602;2022-12-15T13:05:03;47.37;;;31.47;;
37937;SDS011;23763;48.130;11.602;2022-12-15T13:10:42;41.70;;;30.33;;
37937;SDS011;23763;48.130;11.602;2022-12-15T13:15:59;41.60;;;28.10;;
37937;SDS011;23763;48.130;11.602;2022-12-15T13:24:17;41.10;;;29.40;;
37937;SDS011;23763;48.130;11.602;2022-12-15T13:26:43;37.83;;;30.57;;
37937;SDS011;23763;48.130;11.602;2022-12-15T13:29:10;40.27;;;28.90;;
37937;SDS011;23763;48.130;11.602;2022-12-15T13:31:41;40.47;;;28.40;;
37937;SDS011;23763;48.130;11.602;2022-12-15T13:34:15;42.10;;;27.90;;
37937;SDS011;23763;48.130;11.602;2022-12-15T13:36:44;37.50;;;28.57;;
37937;SDS011;23763;48.130;11.602;2022-12-15T13:44:31;39.17;;;29.73;;
37937;SDS011;23763;48.130;11.602;2022-12-15T13:47:12;41.47;;;29.80;;
37937;SDS011;23763;48.130;11.602;2022-12-15T13:49:45;46.27;;;29.63;;
37937;SDS011;23763;48.130;11.602;2022-12-15T13:52:13;45.67;;;31.43;;
37937;SDS011;23763;48.130;11.602;2022-12-15T13:54:55;45.00;;;32.30;;
37937;SDS011;23763;48.130;11.602;2022-12-15T13:57:25;43.80;;;29.73;;
37937;SDS011;23763;48.130;11.602;2022-12-15T14:00:00;43.00;;;30.10;;
37937;SDS011;23763;48.130;11.602;2022-12-15T14:02:32;40.53;;;29.10;;
37937;SDS011;23763;48.130;11.602;2022-12-15T14:07:56;42.03;;;30.20;;
37937;SDS011;23763;48.130;11.602;2022-12-15T14:10:32;46.43;;;29.10;;
37937;SDS011;23763;48.130;11.602;2022-12-15T14:16:03;43.13;;;28.83;;
37937;SDS011;23763;48.130;11.602;2022-12-15T14:18:38;39.73;;;28.27;;
37937;SDS011;23763;48.130;11.602;2022-12-15T14:21:06;40.10;;;27.60;;
37937;SDS011;23763;48.130;11.602;2022-12-15T14:23:46;43.70;;;28.57;;
37937;SDS011;23763;48.130;11.602;2022-12-15T14:26:13;43.07;;;28.63;;
37937;SDS011;23763;48.130;11.602;2022-12-15T14:28:41;37.53;;;27.77;;
37937;SDS011;23763;48.130;11.602;2022-12-15T14:31:42;43.03;;;27.87;;
37937;SDS011;23763;48.130;11.602;2022-12-15T14:34:02;38.33;;;26.90;;
37937;SDS011;23763;48.130;11.602;2022-12-15T14:36:33;38.57;;;27.80;;
37937;SDS011;23763;48.130;11.602;2022-12-15T14:42:02;36.43;;;28.03;;
37937;SDS011;23763;48.130;11.602;2022-12-15T14:44:31;37.67;;;26.67;;
37937;SDS011;23763;48.130;11.602;2022-12-15T14:47:02;41.00;;;29.80;;
37937;SDS011;23763;48.130;11.602;2022-12-15T14:49:36;41.27;;;28.27;;
37937;SDS011;23763;48.130;11.602;2022-12-15T14:52:14;41.00;;;27.77;;
37937;SDS011;23763;48.130;11.602;2022-12-15T14:54:53;38.23;;;26.27;;
37937;SDS011;23763;48.130;11.602;2022-12-15T14:57:25;39.57;;;28.07;;
37937;SDS011;23763;48.130;11.602;2022-12-15T15:00:25;42.50;;;28.67;;
37937;SDS011;23763;48.130;11.602;2022-12-15T15:03:14;42.07;;;29.83;;
37937;SDS011;23763;48.130;11.602;2022-12-15T15:05:47;47.40;;;30.97;;
37937;SDS011;23763;48.130;11.602;2022-12-15T15:08:20;39.23;;;28.13;;
37937;SDS011;23763;48.130;11.602;2022-12-15T15:10:48;43.20;;;28.50;;
37937;SDS011;23763;48.130;11.602;2022-12-15T15:13:16;39.97;;;27.37;;
37937;SDS011;23763;48.130;11.602;2022-12-15T15:15:55;49.00;;;31.03;;
37937;SDS011;23763;48.130;11.602;2022-12-15T15:18:25;39.53;;;27.43;;
37937;SDS011;23763;48.130;11.602;2022-12-15T15:20:59;40.17;;;28.60;;
37937;SDS011;23763;48.130;11.602;2022-12-15T15:23:28;42.07;;;27.97;;
37937;SDS011;23763;48.130;11.602;2022-12-15T15:28:40;40.03;;;28.70;;
37937;SDS011;23763;48.130;11.602;2022-12-15T15:33:51;42.20;;;28.37;;
37937;SDS011;23763;48.130;11.602;2022-12-15T15:36:22;41.60;;;28.83;;
37937;SDS011;23763;48.130;11.602;2022-12-15T15:38:52;41.33;;;28.63;;
37937;SDS011;23763;48.130;11.602;2022-12-15T15:41:19;42.10;;;30.03;;
37937;SDS011;23763;48.130;11.602;2022-12-15T15:43:53;45.90;;;29.60;;
37937;SDS011;23763;48.130;11.602;2022-12-15T15:46:21;47.73;;;33.07;;
37937;SDS011;23763;48.130;11.602;2022-12-15T15:48:50;40.50;;;28.37;;
37937;SDS011;23763;48.130;11.602;2022-12-15T15:51:22;39.83;;;28.37;;
37937;SDS011;23763;48.130;11.602;2022-12-15T15:53:49;37.63;;;27.67;;
37937;SDS011;23763;48.130;11.602;2022-12-15T15:56:15;49.77;;;32.70;;
37937;SDS011;23763;48.130;11.602;2022-12-15T15:58:41;44.43;;;31.03;;
37937;SDS011;23763;48.130;11.602;2022-12-15T16:01:08;40.07;;;29.17;;
37937;SDS011;23763;48.130;11.602;2022-12-15T16:03:34;45.70;;;30.93;;
37937;SDS011;23763;48.130;11.602;2022-12-15T16:06:00;45.50;;;31.93;;
37937;SDS011;23763;48.130;11.602;2022-12-15T16:08:31;43.20;;;30.07;;
37937;SDS011;23763;48.130;11.602;2022-12-15T16:10:59;44.20;;;29.43;;
37937;SDS011;23763;48.130;11.602;2022-12-15T16:13:25;43.33;;;30.23;;
37937;SDS011;23763;48.130;11.602;2022-12-15T16:15:52;46.17;;;30.33;;
37937;SDS011;23763;48.130;11.602;2022-12-15T16:18:18;44.13;;;31.07;;
37937;SDS011;23763;48.130;11.602;2022-12-15T16:20:45;45.43;;;31.83;;
37937;SDS011;23763;48.130;11.602;2022-12-15T16:23:19;44.17;;;29.00;;
37937;SDS011;23763;48.130;11.602;2022-12-15T16:25:48;44.23;;;29.87;;
37937;SDS011;23763;48.130;11.602;2022-12-15T16:28:18;44.90;;;31.93;;
37937;SDS011;23763;48.130;11.602;2022-12-15T16:30:49;47.80;;;29.73;;
37937;SDS011;23763;48.130;11.602;2022-12-15T16:33:15;43.20;;;31.23;;
37937;SDS011;23763;48.130;11.602;2022-12-15T16:35:41;43.87;;;30.23;;
37937;SDS011;23763;48.130;11.602;2022-12-15T16:38:13;46.03;;;31.17;;
37937;SDS011;23763;48.130;11.602;2022-12-15T16:40:43;43.20;;;29.73;;
37937;SDS011;23763;48.130;11.602;2022-12-15T16:43:13;43.57;;;28.97;;
37937;SDS011;23763;48.130;11.602;2022-12-15T16:45:45;47.13;;;30.63;;